Time;durP1;ratioP1;P1;durP2;ratioP2;P2;SDS_P1;SDS_P2;PMS_P1;PMS_P2;Temp;Humidity;BMP_temperature;BMP_pressure;BME280_temperature;BME280_humidity;BME280_pressure;Samples;Min_cycle;Max_cycle;Signal;HPM_P1;HPM_P2
2023/11/30 00:01:09;;;;;;;23.85;14.52;;;0.20;99.90;;;;;;5074948;28;20066;-71
2023/11/30 00:03:36;;;;;;;23.35;13.82;;;0.20;99.90;;;;;;5074518;28;20040;-71
2023/11/30 00:06:03;;;;;;;21.35;12.68;;;0.10;99.90;;;;;;5074736;28;20052;-71
2023/11/30 00:08:30;;;;;;;23.13;14.20;;;0.10;99.90;;;;;;5073029;28;20047;-71
2023/11/30 00:10:56;;;;;;;24.00;13.40;;;0.10;99.90;;;;;;5074556;28;20051;-71
2023/11/30 00:13:23;;;;;;;22.17;13.60;;;0.00;99.90;;;;;;5074739;28;20044;-71
2023/11/30 00:15:50;;;;;;;23.90;12.68;;;0.00;99.90;;;;;;5074353;28;20040;-71
2023/11/30 00:18:17;;;;;;;19.95;12.13;;;0.00;99.90;;;;;;5073873;28;20048;-71
2023/11/30 00:20:43;;;;;;;20.85;13.00;;;0.00;99.90;;;;;;5074215;28;20041;-71
2023/11/30 00:23:11;;;;;;;23.13;12.82;;;-0.10;99.90;;;;;;5081788;28;20098;-71
2023/11/30 00:25:38;;;;;;;20.27;13.32;;;-0.10;99.90;;;;;;5094843;28;20071;-71
2023/11/30 00:28:05;;;;;;;21.17;13.82;;;-0.20;99.90;;;;;;5093463;28;20074;-72
2023/11/30 00:30:31;;;;;;;22.25;12.48;;;-0.20;99.90;;;;;;5093485;28;20058;-71
2023/11/30 00:32:58;;;;;;;25.17;12.95;;;-0.20;99.90;;;;;;5094964;28;20041;-71
2023/11/30 00:35:25;;;;;;;19.42;11.57;;;-0.20;99.90;;;;;;5092964;28;20044;-71
2023/11/30 00:37:53;;;;;;;22.88;12.30;;;-0.20;99.90;;;;;;5093200;28;20495;-71
2023/11/30 00:40:20;;;;;;;23.27;12.57;;;-0.20;99.90;;;;;;5092594;28;20102;-71
2023/11/30 00:42:46;;;;;;;23.42;12.40;;;-0.20;99.90;;;;;;5094738;28;20050;-71
2023/11/30 00:45:13;;;;;;;23.73;13.02;;;-0.20;99.90;;;;;;5094438;28;20036;-72
2023/11/30 00:47:41;;;;;;;22.50;12.23;;;-0.20;99.90;;;;;;5093252;28;20040;-67
2023/11/30 00:50:08;;;;;;;24.98;12.95;;;-0.20;99.90;;;;;;5093168;28;20044;-71
2023/11/30 00:52:35;;;;;;;21.75;13.07;;;-0.20;99.90;;;;;;5092532;28;20093;-72
2023/11/30 00:55:03;;;;;;;23.77;12.68;;;-0.20;99.90;;;;;;5093554;28;20040;-71
2023/11/30 00:57:30;;;;;;;23.83;12.45;;;-0.20;99.90;;;;;;5094415;28;20055;-71
2023/11/30 01:00:00;;;;;;;20.10;12.50;;;-0.30;99.90;;;;;;5092447;28;20449;-73
2023/11/30 01:02:27;;;;;;;23.02;12.90;;;-0.30;99.90;;;;;;5092404;28;20039;-72
2023/11/30 01:04:54;;;;;;;18.27;12.18;;;-0.30;99.90;;;;;;5094020;28;20047;-71
2023/11/30 01:07:20;;;;;;;19.35;11.27;;;-0.30;99.90;;;;;;5093897;28;20040;-72
2023/11/30 01:09:47;;;;;;;21.42;11.65;;;-0.30;99.90;;;;;;5092217;28;20074;-72
2023/11/30 01:12:14;;;;;;;17.20;11.23;;;-0.30;99.90;;;;;;5093769;28;20032;-67
2023/11/30 01:14:41;;;;;;;23.20;12.07;;;-0.30;99.90;;;;;;5093916;28;20082;-67
2023/11/30 01:17:09;;;;;;;19.80;11.55;;;-0.30;99.90;;;;;;5093454;28;20115;-67
2023/11/30 01:19:36;;;;;;;23.77;13.15;;;-0.40;99.90;;;;;;5092508;28;20051;-67
2023/11/30 01:22:05;;;;;;;22.90;11.80;;;-0.40;99.90;;;;;;5093960;28;20419;-66
2023/11/30 01:24:31;;;;;;;21.73;12.05;;;-0.40;99.90;;;;;;5092861;28;20046;-67
2023/11/30 01:26:58;;;;;;;15.57;10.95;;;-0.40;99.90;;;;;;5093496;28;20097;-67
2023/11/30 01:29:25;;;;;;;26.67;11.95;;;-0.40;99.90;;;;;;5093329;28;20127;-67
2023/11/30 01:31:52;;;;;;;20.10;11.73;;;-0.40;99.90;;;;;;5092399;28;20040;-66
2023/11/30 01:34:19;;;;;;;19.65;11.98;;;-0.40;99.90;;;;;;5093352;28;20047;-66
2023/11/30 01:36:46;;;;;;;18.33;11.35;;;-0.40;99.90;;;;;;5092080;28;20048;-66
2023/11/30 01:39:14;;;;;;;20.63;11.85;;;-0.50;99.90;;;;;;5091729;28;20052;-66
2023/11/30 01:41:41;;;;;;;21.60;11.38;;;-0.50;99.90;;;;;;5093322;28;20048;-67
2023/11/30 01:44:08;;;;;;;19.10;10.70;;;-0.50;99.90;;;;;;5093702;28;20048;-67
2023/11/30 01:46:34;;;;;;;17.63;11.57;;;-0.60;99.90;;;;;;5093481;28;20541;-67
2023/11/30 01:49:01;;;;;;;20.67;11.73;;;-0.60;99.90;;;;;;5091803;28;20048;-67
2023/11/30 01:51:28;;;;;;;19.00;11.38;;;-0.60;99.90;;;;;;5092000;28;20093;-67
2023/11/30 01:53:56;;;;;;;15.73;10.88;;;-0.60;99.90;;;;;;5075866;28;20048;-67
2023/11/30 01:56:22;;;;;;;23.50;11.88;;;-0.60;99.90;;;;;;5093161;28;20043;-67
2023/11/30 01:58:49;;;;;;;18.60;10.85;;;-0.70;99.90;;;;;;5091769;28;20044;-67
2023/11/30 02:01:16;;;;;;;19.58;11.00;;;-0.70;99.90;;;;;;5092108;28;20047;-67
2023/11/30 02:03:43;;;;;;;20.85;11.82;;;-0.70;99.90;;;;;;5075207;28;20046;-68
2023/11/30 02:06:10;;;;;;;34.80;15.88;;;-0.70;99.90;;;;;;5095003;28;20132;-67
2023/11/30 02:08:36;;;;;;;18.65;11.52;;;-0.70;99.90;;;;;;5096882;28;20059;-67
2023/11/30 02:11:04;;;;;;;21.90;11.43;;;-0.70;99.90;;;;;;5096097;28;20082;-67
2023/11/30 02:13:30;;;;;;;20.88;11.25;;;-0.70;99.90;;;;;;5095686;28;20048;-67
2023/11/30 02:15:57;;;;;;;19.90;11.57;;;-0.70;99.90;;;;;;5095725;28;20451;-67
2023/11/30 02:18:24;;;;;;;19.58;10.77;;;-0.70;99.90;;;;;;5095199;28;20127;-67
2023/11/30 02:20:54;;;;;;;20.20;10.70;;;-0.70;99.90;;;;;;5095244;28;20101;-67
2023/11/30 02:23:21;;;;;;;17.50;11.20;;;-0.70;99.90;;;;;;5095287;28;20096;-71
2023/11/30 02:25:48;;;;;;;21.95;10.85;;;-0.80;99.90;;;;;;5096529;28;20485;-72
2023/11/30 02:28:15;;;;;;;23.13;11.57;;;-0.80;99.90;;;;;;5078474;28;20469;-71
2023/11/30 02:30:41;;;;;;;21.45;10.77;;;-0.80;99.90;;;;;;5095721;28;20495;-71
2023/11/30 02:33:08;;;;;;;20.55;11.38;;;-0.90;99.90;;;;;;5095236;28;20580;-72
2023/11/30 02:35:35;;;;;;;18.67;11.70;;;-0.90;99.90;;;;;;5096154;28;20036;-72
2023/11/30 02:38:02;;;;;;;21.38;11.82;;;-0.90;99.90;;;;;;5096138;28;20052;-71
2023/11/30 02:40:29;;;;;;;21.70;10.98;;;-0.90;99.90;;;;;;5094938;28;20091;-72
2023/11/30 02:42:55;;;;;;;20.23;11.43;;;-0.80;99.90;;;;;;5096721;28;20047;-70
2023/11/30 02:45:22;;;;;;;19.08;10.82;;;-0.90;99.90;;;;;;5096604;28;20047;-71
2023/11/30 02:47:49;;;;;;;18.58;10.95;;;-0.90;99.90;;;;;;5094652;28;20054;-71
2023/11/30 02:50:16;;;;;;;19.45;10.52;;;-0.90;99.90;;;;;;5094708;28;20544;-72
2023/11/30 02:52:43;;;;;;;18.92;11.43;;;-0.90;99.90;;;;;;5095915;28;20378;-70
2023/11/30 02:55:10;;;;;;;18.83;10.75;;;-0.90;99.90;;;;;;5095344;28;20047;-71
2023/11/30 02:57:36;;;;;;;17.95;10.73;;;-0.90;99.90;;;;;;5096510;28;20109;-71
2023/11/30 03:00:04;;;;;;;17.27;10.60;;;-0.90;99.90;;;;;;5094966;28;20138;-70
2023/11/30 03:02:31;;;;;;;19.63;11.05;;;-1.00;99.90;;;;;;5095675;28;20040;-71
2023/11/30 03:04:57;;;;;;;19.90;12.60;;;-1.00;99.90;;;;;;5095995;28;20119;-72
2023/11/30 03:07:24;;;;;;;23.50;12.52;;;-1.10;99.90;;;;;;5094699;28;20086;-71
2023/11/30 03:09:51;;;;;;;20.70;11.38;;;-1.10;99.90;;;;;;5077581;28;20040;-72
2023/11/30 03:12:18;;;;;;;22.25;10.88;;;-1.00;99.90;;;;;;5096089;28;20098;-72
2023/11/30 03:14:45;;;;;;;18.27;11.27;;;-1.10;99.90;;;;;;5095733;28;20047;-72
2023/11/30 03:17:12;;;;;;;20.52;11.07;;;-1.10;99.90;;;;;;5094967;28;20064;-72
2023/11/30 03:19:39;;;;;;;21.83;10.50;;;-1.10;99.90;;;;;;5094055;28;20481;-71
2023/11/30 03:22:05;;;;;;;17.15;10.35;;;-1.10;99.90;;;;;;5095461;28;20071;-72
2023/11/30 03:24:32;;;;;;;22.58;11.75;;;-1.10;99.90;;;;;;5094309;28;20042;-72
2023/11/30 03:26:59;;;;;;;24.02;11.75;;;-1.10;99.90;;;;;;5094541;28;20044;-68
2023/11/30 03:29:26;;;;;;;18.52;10.63;;;-1.10;99.90;;;;;;5095813;28;20032;-68
2023/11/30 03:31:53;;;;;;;22.77;11.35;;;-1.10;99.90;;;;;;5095824;28;20126;-73
2023/11/30 03:34:20;;;;;;;18.63;10.50;;;-1.10;99.90;;;;;;5093900;28;20040;-73
2023/11/30 03:36:46;;;;;;;16.60;10.70;;;-1.10;99.90;;;;;;5095476;28;20044;-69
2023/11/30 03:39:13;;;;;;;19.23;10.65;;;-1.10;99.90;;;;;;5093601;28;20056;-69
2023/11/30 03:41:40;;;;;;;22.25;12.05;;;-1.10;99.90;;;;;;5095761;28;20392;-69
2023/11/30 03:44:07;;;;;;;28.05;13.15;;;-1.10;99.90;;;;;;5093878;28;20043;-69
2023/11/30 03:46:34;;;;;;;26.08;11.25;;;-1.20;99.90;;;;;;5095218;28;20083;-69
2023/11/30 03:49:01;;;;;;;28.13;13.25;;;-1.30;99.90;;;;;;5093638;28;20040;-69
2023/11/30 03:51:27;;;;;;;21.25;12.13;;;-1.20;99.90;;;;;;5095144;28;20040;-68
2023/11/30 03:53:54;;;;;;;19.40;11.63;;;-1.20;99.90;;;;;;5093931;28;20039;-69
2023/11/30 03:56:21;;;;;;;18.95;11.07;;;-1.30;99.90;;;;;;5094697;28;20040;-68
2023/11/30 03:58:48;;;;;;;22.40;11.38;;;-1.30;99.90;;;;;;5094595;28;20451;-68
2023/11/30 04:01:15;;;;;;;20.05;11.60;;;-1.30;99.90;;;;;;5094699;28;20070;-68
2023/11/30 04:03:42;;;;;;;22.08;11.18;;;-1.30;99.90;;;;;;5093600;28;20101;-68
2023/11/30 04:06:09;;;;;;;20.85;11.77;;;-1.40;99.90;;;;;;5094473;28;20126;-68
2023/11/30 04:08:36;;;;;;;21.10;11.80;;;-1.30;99.90;;;;;;5093099;28;20040;-68
2023/11/30 04:11:02;;;;;;;24.55;12.30;;;-1.30;99.90;;;;;;5094357;28;20044;-68
2023/11/30 04:13:29;;;;;;;23.73;12.13;;;-1.40;99.90;;;;;;5076499;28;20113;-68
2023/11/30 04:15:56;;;;;;;19.23;11.07;;;-1.40;99.90;;;;;;5093110;28;20044;-68
2023/11/30 04:18:23;;;;;;;21.20;11.88;;;-1.40;99.90;;;;;;5092997;28;20040;-69
2023/11/30 04:20:51;;;;;;;25.25;10.75;;;-1.40;99.90;;;;;;5093460;28;20043;-69
2023/11/30 04:23:18;;;;;;;19.13;11.00;;;-1.50;99.90;;;;;;5094396;28;20045;-68
2023/11/30 04:25:45;;;;;;;20.80;11.10;;;-1.50;99.90;;;;;;5094228;28;20043;-68
2023/11/30 04:28:12;;;;;;;21.58;11.63;;;-1.50;99.90;;;;;;5094587;28;20047;-71
2023/11/30 04:30:39;;;;;;;24.08;10.70;;;-1.50;99.90;;;;;;5093300;28;20044;-71
2023/11/30 04:33:06;;;;;;;20.67;11.45;;;-1.60;99.90;;;;;;5094231;28;20033;-68
2023/11/30 04:35:34;;;;;;;18.45;11.07;;;-1.60;99.90;;;;;;5093327;28;20453;-68
2023/11/30 04:38:00;;;;;;;19.20;11.23;;;-1.60;99.90;;;;;;5092667;28;20469;-68
2023/11/30 04:40:27;;;;;;;21.02;11.55;;;-1.60;99.90;;;;;;5093866;28;20105;-68
2023/11/30 04:42:54;;;;;;;24.88;12.07;;;-1.60;99.90;;;;;;5094544;28;20040;-68
2023/11/30 04:45:21;;;;;;;18.55;11.30;;;-1.60;99.90;;;;;;5092804;28;20093;-71
2023/11/30 04:47:48;;;;;;;19.15;11.60;;;-1.60;99.90;;;;;;5092540;28;20134;-68
2023/11/30 04:50:15;;;;;;;19.27;11.35;;;-1.60;99.90;;;;;;5094478;28;20036;-71
2023/11/30 04:52:42;;;;;;;20.35;11.48;;;-1.60;99.90;;;;;;5093243;28;20043;-72
2023/11/30 04:55:08;;;;;;;21.92;10.85;;;-1.70;99.90;;;;;;5093413;28;20115;-71
2023/11/30 04:57:35;;;;;;;21.70;11.52;;;-1.70;99.90;;;;;;5092832;28;20040;-69
2023/11/30 05:00:05;;;;;;;17.88;11.27;;;-1.70;99.90;;;;;;5093228;28;20047;-68
2023/11/30 05:02:32;;;;;;;18.17;11.40;;;-1.70;99.90;;;;;;5093469;28;20053;-68
2023/11/30 05:04:59;;;;;;;21.38;11.35;;;-1.80;99.90;;;;;;5097614;28;20104;-68
2023/11/30 05:07:26;;;;;;;21.20;12.15;;;-1.80;99.90;;;;;;5096375;28;20040;-72
2023/11/30 05:09:52;;;;;;;23.02;11.68;;;-1.80;99.90;;;;;;5096039;28;20051;-66
2023/11/30 05:12:19;;;;;;;21.73;12.05;;;-1.70;99.90;;;;;;5095224;28;20036;-70
2023/11/30 05:14:46;;;;;;;25.13;12.07;;;-1.70;99.90;;;;;;5093723;28;20040;-70
2023/11/30 05:17:13;;;;;;;21.52;12.32;;;-1.70;99.90;;;;;;5093771;28;20044;-67
2023/11/30 05:19:39;;;;;;;21.05;12.45;;;-1.70;99.90;;;;;;5093858;28;20504;-68
2023/11/30 05:22:06;;;;;;;26.10;13.10;;;-1.70;99.90;;;;;;5093668;28;20044;-68
2023/11/30 05:24:34;;;;;;;20.05;11.68;;;-1.80;99.90;;;;;;5092454;28;20047;-68
2023/11/30 05:27:01;;;;;;;19.38;12.00;;;-1.80;99.90;;;;;;5092486;28;20040;-68
2023/11/30 05:29:28;;;;;;;23.65;11.38;;;-1.80;99.90;;;;;;5093510;28;20042;-68
2023/11/30 05:31:55;;;;;;;22.63;11.70;;;-1.80;99.90;;;;;;5093498;28;20032;-70
2023/11/30 05:34:22;;;;;;;20.02;11.88;;;-1.80;99.90;;;;;;5092428;28;20072;-70
2023/11/30 05:36:48;;;;;;;23.70;12.18;;;-1.80;99.90;;;;;;5093883;28;20036;-70
2023/11/30 05:39:15;;;;;;;21.88;11.38;;;-1.80;99.90;;;;;;5093187;28;20059;-70
2023/11/30 05:41:42;;;;;;;19.40;11.63;;;-1.80;99.90;;;;;;5097229;28;20623;-68
2023/11/30 05:44:09;;;;;;;22.70;11.45;;;-1.80;99.90;;;;;;5097304;28;20051;-71
2023/11/30 05:46:36;;;;;;;23.38;12.20;;;-1.80;99.90;;;;;;5097585;28;20400;-69
2023/11/30 05:49:03;;;;;;;20.85;11.93;;;-1.80;99.90;;;;;;5097009;28;20040;-69
2023/11/30 05:51:30;;;;;;;22.05;12.30;;;-1.90;99.90;;;;;;5096979;28;20201;-69
2023/11/30 05:53:57;;;;;;;21.40;12.27;;;-1.80;99.90;;;;;;5097094;28;20046;-69
2023/11/30 05:56:23;;;;;;;25.00;12.30;;;-1.80;99.90;;;;;;5096998;28;20044;-69
2023/11/30 05:58:50;;;;;;;22.00;12.18;;;-1.90;99.90;;;;;;5097014;28;20032;-69
2023/11/30 06:01:18;;;;;;;24.83;12.50;;;-1.90;99.90;;;;;;5096829;28;20039;-69
2023/11/30 06:03:45;;;;;;;22.15;13.50;;;-1.90;99.90;;;;;;5097587;28;20052;-68
2023/11/30 06:06:12;;;;;;;22.98;12.93;;;-1.90;99.90;;;;;;5097473;28;20047;-69
2023/11/30 06:08:39;;;;;;;23.40;12.85;;;-1.80;99.90;;;;;;5096820;28;20044;-69
2023/11/30 06:11:05;;;;;;;23.30;13.13;;;-1.80;99.90;;;;;;5097059;28;20047;-69
2023/11/30 06:13:32;;;;;;;21.05;12.48;;;-1.80;99.90;;;;;;5097170;28;20422;-71
2023/11/30 06:15:59;;;;;;;19.90;11.70;;;-1.80;99.90;;;;;;5097137;28;20362;-72
2023/11/30 06:18:26;;;;;;;22.42;11.25;;;-1.80;99.90;;;;;;5096764;28;20093;-72
2023/11/30 06:20:53;;;;;;;18.48;11.60;;;-1.80;99.90;;;;;;5097093;28;20040;-70
2023/11/30 06:23:20;;;;;;;19.17;12.15;;;-1.80;99.90;;;;;;5096439;28;20040;-72
2023/11/30 06:25:46;;;;;;;22.00;12.35;;;-1.80;99.90;;;;;;5096748;28;20042;-72
2023/11/30 06:28:13;;;;;;;19.88;12.50;;;-1.70;99.90;;;;;;5096466;28;20040;-72
2023/11/30 06:30:40;;;;;;;23.55;13.18;;;-1.70;99.90;;;;;;5096777;28;20036;-68
2023/11/30 06:33:07;;;;;;;20.77;13.45;;;-1.60;99.90;;;;;;5095230;28;20036;-68
2023/11/30 06:35:33;;;;;;;24.40;12.48;;;-1.70;99.90;;;;;;5096804;28;20369;-68
2023/11/30 06:38:00;;;;;;;21.08;13.40;;;-1.70;99.90;;;;;;5096893;28;20530;-68
2023/11/30 06:40:29;;;;;;;22.33;12.20;;;-1.70;99.90;;;;;;5096141;28;20403;-68
2023/11/30 06:42:55;;;;;;;20.52;12.43;;;-1.70;99.90;;;;;;5078403;28;20051;-68
2023/11/30 06:45:22;;;;;;;22.85;13.10;;;-1.60;99.90;;;;;;5096712;28;20047;-68
2023/11/30 06:47:49;;;;;;;23.10;13.10;;;-1.50;99.90;;;;;;5096109;28;20055;-69
2023/11/30 06:50:16;;;;;;;20.48;12.60;;;-1.50;99.90;;;;;;5094736;28;20070;-69
2023/11/30 06:52:43;;;;;;;25.58;14.43;;;-1.40;99.90;;;;;;5094618;28;20042;-69
2023/11/30 06:55:09;;;;;;;23.17;12.48;;;-1.40;99.90;;;;;;5095864;28;20036;-69
2023/11/30 06:57:38;;;;;;;23.70;14.88;;;-1.30;99.90;;;;;;5095077;28;20045;-69
2023/11/30 07:00:08;;;;;;;22.90;13.93;;;-1.20;99.90;;;;;;5094528;28;20040;-69
2023/11/30 07:02:35;;;;;;;20.20;13.02;;;-1.20;99.90;;;;;;5096270;28;20044;-68
2023/11/30 07:05:05;;;;;;;22.30;13.90;;;-1.10;99.90;;;;;;5096335;28;20066;-69
2023/11/30 07:07:32;;;;;;;21.25;12.55;;;-1.10;99.90;;;;;;5094696;28;20050;-68
2023/11/30 07:10:02;;;;;;;21.67;12.85;;;-1.00;99.90;;;;;;5096145;28;20041;-68
2023/11/30 07:12:29;;;;;;;21.65;13.25;;;-1.00;99.90;;;;;;5096160;28;20194;-68
2023/11/30 07:14:56;;;;;;;21.23;13.65;;;-1.00;99.90;;;;;;5095709;28;20067;-68
2023/11/30 07:17:23;;;;;;;21.25;13.05;;;-1.00;99.90;;;;;;5095576;28;20035;-68
2023/11/30 07:19:51;;;;;;;23.17;13.57;;;-0.90;99.90;;;;;;5094236;28;20573;-68
2023/11/30 07:22:20;;;;;;;19.65;13.32;;;-0.90;99.90;;;;;;5095691;28;20044;-68
2023/11/30 07:24:47;;;;;;;25.42;15.68;;;-0.80;99.90;;;;;;5095708;28;20381;-68
2023/11/30 07:27:14;;;;;;;22.20;14.23;;;-0.80;99.90;;;;;;5095727;28;20075;-68
2023/11/30 07:29:40;;;;;;;22.60;13.32;;;-0.80;99.90;;;;;;5095364;28;20044;-68
2023/11/30 07:32:08;;;;;;;31.27;14.98;;;-0.70;99.90;;;;;;5095715;28;20115;-70
2023/11/30 07:34:35;;;;;;;23.00;13.27;;;-0.60;99.90;;;;;;5095460;28;20035;-70
2023/11/30 07:37:02;;;;;;;22.38;13.68;;;-0.60;99.90;;;;;;5094382;28;20119;-71
2023/11/30 07:39:29;;;;;;;26.50;14.38;;;-0.60;99.90;;;;;;5094664;28;20048;-70
2023/11/30 07:41:55;;;;;;;24.27;14.18;;;-0.60;99.90;;;;;;5093597;28;20093;-71
2023/11/30 07:44:23;;;;;;;23.38;14.88;;;-0.50;99.90;;;;;;5095331;28;20381;-70
2023/11/30 07:46:50;;;;;;;25.42;15.48;;;-0.50;99.90;;;;;;5095040;28;20447;-68
2023/11/30 07:49:17;;;;;;;29.30;15.48;;;-0.50;99.90;;;;;;5094901;28;20040;-68
2023/11/30 07:51:44;;;;;;;27.70;17.30;;;-0.50;99.90;;;;;;5094847;28;20043;-68
2023/11/30 07:54:10;;;;;;;29.67;16.15;;;-0.50;99.90;;;;;;5094087;28;20044;-70
2023/11/30 07:56:37;;;;;;;37.70;17.60;;;-0.50;99.90;;;;;;5095278;28;20047;-67
2023/11/30 07:59:04;;;;;;;37.35;18.33;;;-0.60;99.90;;;;;;5094736;28;20519;-70
2023/11/30 08:01:31;;;;;;;33.95;18.08;;;-0.60;99.90;;;;;;5094948;28;20479;-70
2023/11/30 08:03:58;;;;;;;44.38;19.60;;;-0.60;99.90;;;;;;5093168;28;20481;-71
2023/11/30 08:06:25;;;;;;;32.85;19.25;;;-0.60;99.90;;;;;;5095166;28;20048;-70
2023/11/30 08:08:52;;;;;;;41.33;19.25;;;-0.60;99.90;;;;;;5094957;28;20457;-69
2023/11/30 08:11:19;;;;;;;40.10;18.50;;;-0.50;99.90;;;;;;5093818;28;20115;-70
2023/11/30 08:13:46;;;;;;;57.55;17.80;;;-0.50;99.90;;;;;;5094334;28;20064;-70
2023/11/30 08:16:13;;;;;;;67.55;16.58;;;-0.50;99.90;;;;;;5094578;28;20044;-70
2023/11/30 08:18:40;;;;;;;81.78;17.85;;;-0.50;99.90;;;;;;5094331;28;20107;-71
2023/11/30 08:21:07;;;;;;;42.75;18.15;;;-0.40;99.90;;;;;;5094808;28;20102;-71
2023/11/30 08:23:36;;;;;;;51.10;18.67;;;-0.40;99.90;;;;;;5093590;28;20114;-71
2023/11/30 08:26:03;;;;;;;44.40;18.48;;;-0.40;99.90;;;;;;5094132;28;20048;-71
2023/11/30 08:28:30;;;;;;;95.18;18.38;;;-0.30;99.90;;;;;;5094274;28;20439;-73
2023/11/30 08:31:01;;;;;;;54.60;17.77;;;-0.40;99.90;;;;;;5093413;28;20079;-67
2023/11/30 08:33:27;;;;;;;62.05;18.13;;;-0.40;99.90;;;;;;5094006;28;20400;-67
2023/11/30 08:35:54;;;;;;;84.80;17.05;;;-0.30;99.90;;;;;;5094646;28;20040;-67
2023/11/30 08:38:22;;;;;;;40.30;18.58;;;-0.30;99.90;;;;;;5093670;28;20466;-68
2023/11/30 08:40:49;;;;;;;92.78;18.48;;;-0.30;99.90;;;;;;5092681;28;20045;-68
2023/11/30 08:43:16;;;;;;;55.33;18.83;;;-0.30;99.90;;;;;;5093012;28;20044;-71
2023/11/30 08:45:43;;;;;;;37.88;18.90;;;-0.20;99.90;;;;;;5091846;28;20047;-70
2023/11/30 08:48:11;;;;;;;40.65;20.30;;;-0.20;99.90;;;;;;5093054;28;20117;-71
2023/11/30 08:50:38;;;;;;;39.13;18.67;;;-0.10;99.90;;;;;;5092879;28;20044;-67
2023/11/30 08:53:05;;;;;;;41.70;18.63;;;0.00;99.90;;;;;;5092873;28;20067;-70
2023/11/30 08:55:31;;;;;;;43.55;20.15;;;0.10;99.90;;;;;;5092897;28;20037;-69
2023/11/30 08:57:58;;;;;;;35.47;19.33;;;0.10;99.90;;;;;;5093365;28;20078;-71
2023/11/30 09:00:25;;;;;;;35.00;18.35;;;0.10;99.90;;;;;;5094221;28;20128;-71
2023/11/30 09:02:52;;;;;;;35.20;19.33;;;0.10;99.90;;;;;;5093609;28;20123;-71
2023/11/30 09:05:19;;;;;;;40.08;19.92;;;0.10;99.90;;;;;;5093754;28;20059;-71
2023/11/30 09:07:46;;;;;;;33.25;18.60;;;0.20;99.90;;;;;;5093522;28;20105;-71
2023/11/30 09:10:13;;;;;;;34.55;17.90;;;0.20;99.90;;;;;;5093689;28;20508;-70
2023/11/30 09:12:40;;;;;;;30.90;17.88;;;0.30;99.90;;;;;;5092733;28;20484;-70
2023/11/30 09:15:08;;;;;;;30.05;17.60;;;0.30;99.90;;;;;;5091229;28;20042;-67
2023/11/30 09:17:36;;;;;;;32.15;19.10;;;0.30;99.90;;;;;;5092855;28;20059;-69
2023/11/30 09:20:04;;;;;;;35.05;19.08;;;0.40;99.90;;;;;;5092324;28;20550;-69
2023/11/30 09:22:32;;;;;;;34.08;19.30;;;0.40;99.90;;;;;;5092418;28;20082;-71
2023/11/30 09:24:59;;;;;;;39.28;19.95;;;0.40;99.90;;;;;;5093513;28;20044;-70
2023/11/30 09:27:26;;;;;;;37.28;19.58;;;0.40;99.90;;;;;;5092650;28;20428;-69
2023/11/30 09:29:53;;;;;;;35.15;19.40;;;0.40;99.90;;;;;;5093660;28;20116;-70
2023/11/30 09:32:22;;;;;;;39.67;19.52;;;0.40;99.90;;;;;;5093973;28;20036;-67
2023/11/30 09:34:49;;;;;;;35.45;20.10;;;0.30;99.90;;;;;;5093445;28;20048;-67
2023/11/30 09:37:16;;;;;;;38.33;19.05;;;0.40;99.90;;;;;;5093402;28;20427;-70
2023/11/30 09:39:44;;;;;;;34.80;20.60;;;0.50;99.90;;;;;;5093019;28;20496;-69
2023/11/30 09:42:15;;;;;;;43.33;20.75;;;0.50;99.90;;;;;;5093616;28;20040;-70
2023/11/30 09:44:43;;;;;;;41.65;21.52;;;0.60;99.90;;;;;;5093412;28;20422;-70
2023/11/30 09:47:10;;;;;;;40.92;22.70;;;0.60;99.90;;;;;;5093669;28;20042;-69
2023/11/30 09:49:37;;;;;;;45.38;22.58;;;0.60;99.90;;;;;;5093469;28;20048;-69
2023/11/30 09:52:03;;;;;;;44.47;21.95;;;0.60;99.90;;;;;;5093147;28;20396;-70
2023/11/30 09:54:30;;;;;;;47.13;23.65;;;0.60;99.90;;;;;;5092490;28;20040;-69
2023/11/30 09:56:57;;;;;;;47.85;24.67;;;0.60;99.90;;;;;;5093697;28;20036;-69
2023/11/30 09:59:24;;;;;;;48.33;25.10;;;0.60;99.90;;;;;;5093147;28;20044;-70
2023/11/30 10:01:51;;;;;;;48.85;23.98;;;0.50;99.90;;;;;;5093574;28;20782;-70
2023/11/30 10:04:18;;;;;;;45.03;23.63;;;0.50;99.90;;;;;;5093173;28;20048;-70
2023/11/30 10:06:46;;;;;;;50.38;25.98;;;0.50;99.90;;;;;;5091792;28;20044;-70
2023/11/30 10:09:14;;;;;;;47.50;24.58;;;0.50;99.90;;;;;;5093304;28;20075;-71
2023/11/30 10:11:40;;;;;;;45.42;25.73;;;0.40;99.90;;;;;;5093049;28;20043;-70
2023/11/30 10:14:07;;;;;;;42.78;24.15;;;0.40;99.90;;;;;;5093145;28;20051;-70
2023/11/30 10:16:34;;;;;;;45.47;24.90;;;0.40;99.90;;;;;;5093069;28;20028;-70
2023/11/30 10:19:02;;;;;;;45.20;25.75;;;0.40;99.90;;;;;;5093039;28;20042;-71
2023/11/30 10:21:31;;;;;;;46.95;24.50;;;0.30;99.90;;;;;;5093228;28;20036;-70
2023/11/30 10:23:59;;;;;;;43.03;23.38;;;0.30;99.90;;;;;;5092058;28;20094;-70
2023/11/30 10:26:26;;;;;;;42.25;22.58;;;0.30;99.90;;;;;;5094897;28;20036;-70
2023/11/30 10:28:53;;;;;;;44.55;24.02;;;0.30;99.90;;;;;;5096264;28;20094;-70
2023/11/30 10:31:19;;;;;;;46.08;25.27;;;0.30;99.90;;;;;;5096802;28;20456;-70
2023/11/30 10:33:46;;;;;;;50.95;25.77;;;0.30;99.90;;;;;;5096903;28;20040;-70
2023/11/30 10:36:13;;;;;;;46.17;24.15;;;0.30;99.90;;;;;;5097000;28;20046;-71
2023/11/30 10:38:40;;;;;;;44.67;24.20;;;0.20;99.90;;;;;;5096444;28;20465;-71
2023/11/30 10:41:07;;;;;;;43.72;22.35;;;0.20;99.90;;;;;;5096297;28;20056;-70
2023/11/30 10:43:34;;;;;;;46.72;24.45;;;0.20;99.90;;;;;;5096749;28;20040;-70
2023/11/30 10:46:02;;;;;;;46.05;23.98;;;0.20;99.90;;;;;;5096431;28;20093;-69
2023/11/30 10:48:29;;;;;;;46.38;22.65;;;0.20;99.90;;;;;;5096224;28;20052;-70
2023/11/30 10:50:56;;;;;;;47.35;22.10;;;0.30;99.90;;;;;;5096374;28;20043;-70
2023/11/30 10:53:24;;;;;;;44.55;23.35;;;0.30;99.90;;;;;;5096298;28;20639;-67
2023/11/30 10:55:50;;;;;;;43.38;21.98;;;0.30;99.90;;;;;;5096595;28;20067;-67
2023/11/30 10:58:17;;;;;;;42.33;21.60;;;0.30;99.90;;;;;;5094649;28;20465;-68
2023/11/30 11:00:44;;;;;;;41.40;20.83;;;0.30;99.90;;;;;;5094853;28;20160;-67
2023/11/30 11:03:12;;;;;;;41.40;21.02;;;0.40;99.90;;;;;;5096204;28;20040;-67
2023/11/30 11:05:39;;;;;;;38.58;20.90;;;0.40;99.90;;;;;;5096182;28;20119;-66
2023/11/30 11:08:06;;;;;;;39.42;20.67;;;0.50;99.90;;;;;;5095851;28;20097;-67
2023/11/30 11:10:33;;;;;;;37.75;20.05;;;0.50;99.90;;;;;;5096109;28;20123;-70
2023/11/30 11:12:59;;;;;;;35.33;19.67;;;0.60;99.90;;;;;;5096038;28;20036;-71
2023/11/30 11:15:29;;;;;;;33.33;19.27;;;0.70;99.90;;;;;;5096043;28;20104;-70
2023/11/30 11:18:02;;;;;;;32.78;18.35;;;0.80;99.90;;;;;;5096004;28;20128;-70
2023/11/30 11:20:29;;;;;;;28.95;17.55;;;0.80;99.90;;;;;;5095372;28;20419;-71
2023/11/30 11:22:56;;;;;;;29.05;17.77;;;0.90;99.90;;;;;;5095503;28;20539;-66
2023/11/30 11:25:23;;;;;;;33.75;18.58;;;1.00;99.90;;;;;;5095692;28;20044;-67
2023/11/30 11:27:50;;;;;;;29.02;17.55;;;1.10;99.90;;;;;;5095748;28;20044;-66
2023/11/30 11:30:17;;;;;;;34.45;19.80;;;1.10;99.90;;;;;;5096065;28;20455;-67
2023/11/30 11:32:44;;;;;;;33.33;19.33;;;1.10;99.90;;;;;;5096093;28;20132;-69
2023/11/30 11:35:11;;;;;;;36.88;20.40;;;1.10;99.90;;;;;;5096665;28;20044;-67
2023/11/30 11:37:38;;;;;;;36.15;21.23;;;1.00;99.90;;;;;;5097645;28;20039;-67
2023/11/30 11:40:04;;;;;;;37.25;20.55;;;1.00;99.90;;;;;;5097619;28;20052;-67
2023/11/30 11:42:32;;;;;;;34.53;19.23;;;1.10;99.90;;;;;;5098396;28;20036;-70
2023/11/30 11:44:59;;;;;;;34.80;19.65;;;1.10;99.90;;;;;;5094576;28;20048;-70
2023/11/30 11:47:26;;;;;;;32.63;18.55;;;1.10;99.90;;;;;;5094698;28;20122;-70
2023/11/30 11:49:53;;;;;;;30.63;18.30;;;1.20;99.90;;;;;;5096633;28;20059;-70
2023/11/30 11:52:20;;;;;;;36.42;19.65;;;1.20;99.90;;;;;;5096109;28;20131;-70
2023/11/30 11:54:46;;;;;;;32.17;19.65;;;1.30;99.90;;;;;;5095194;28;20044;-70
2023/11/30 11:57:13;;;;;;;33.63;20.55;;;1.40;99.90;;;;;;5094736;28;20042;-70
2023/11/30 11:59:40;;;;;;;32.38;20.55;;;1.40;99.90;;;;;;5095003;28;20068;-71
2023/11/30 12:02:07;;;;;;;33.47;20.23;;;1.50;99.90;;;;;;5093738;28;20056;-71
2023/11/30 12:04:34;;;;;;;29.52;20.27;;;1.60;99.90;;;;;;5094995;28;20477;-70
2023/11/30 12:07:01;;;;;;;30.75;19.75;;;1.70;99.90;;;;;;5094804;28;20052;-70
2023/11/30 12:09:28;;;;;;;31.33;20.17;;;1.80;99.90;;;;;;5094421;28;20500;-70
2023/11/30 12:11:54;;;;;;;33.67;21.02;;;1.80;99.90;;;;;;5093426;28;20036;-70
2023/11/30 12:14:22;;;;;;;31.15;20.13;;;1.90;99.90;;;;;;5094903;28;20039;-70
2023/11/30 12:16:49;;;;;;;33.97;19.75;;;2.00;99.90;;;;;;5095004;28;20036;-70
2023/11/30 12:19:19;;;;;;;35.50;21.67;;;2.20;99.90;;;;;;5094268;28;20036;-70
2023/11/30 12:21:46;;;;;;;37.20;20.10;;;2.20;99.90;;;;;;5094510;28;20123;-70
2023/11/30 12:24:14;;;;;;;32.20;20.15;;;2.30;99.90;;;;;;5094505;28;20044;-70
2023/11/30 12:26:41;;;;;;;33.78;19.73;;;2.20;99.90;;;;;;5094226;28;20558;-70
2023/11/30 12:29:10;;;;;;;29.98;19.67;;;2.30;99.90;;;;;;5094567;28;20479;-70